createdAt,value
2018-04-17T00:00:31.837Z,1017.25
2018-04-17T00:01:41.512Z,1017.26
2018-04-17T00:02:50.948Z,1017.29
2018-04-17T00:04:00.093Z,1017.29
2018-04-17T00:05:08.996Z,1017.33
2018-04-17T00:06:18.404Z,1017.29
2018-04-17T00:07:27.561Z,1017.33
2018-04-17T00:08:37.484Z,1017.32
2018-04-17T00:09:46.395Z,1017.33
2018-04-17T00:10:55.807Z,1017.29
2018-04-17T00:12:04.970Z,1017.34
2018-04-17T00:13:14.390Z,1017.3
2018-04-17T00:14:24.340Z,1017.3
2018-04-17T00:15:34.025Z,1017.29
2018-04-17T00:16:43.702Z,1017.33
2018-04-17T00:17:53.112Z,1017.27
2018-04-17T00:19:02.525Z,1017.28
2018-04-17T00:20:11.956Z,1017.33
2018-04-17T00:21:21.365Z,1017.3
2018-04-17T00:22:30.268Z,1017.29
2018-04-17T00:23:40.380Z,1017.29
2018-04-17T00:24:49.274Z,1017.33
2018-04-17T00:25:59.237Z,1017.31
2018-04-17T00:27:09.163Z,1017.28
2018-04-17T00:28:19.123Z,1017.34
2018-04-17T00:29:29.132Z,1017.32
2018-04-17T00:30:38.548Z,1017.27
2018-04-17T00:31:47.959Z,1017.28
2018-04-17T00:32:57.372Z,1017.3
2018-04-17T00:34:06.789Z,1017.25
2018-04-17T00:35:15.438Z,1017.27
2018-04-17T00:36:24.611Z,1017.28
2018-04-17T00:37:34.026Z,1017.3
2018-04-17T00:38:43.449Z,1017.33
2018-04-17T00:39:52.862Z,1017.34
2018-04-17T00:41:02.516Z,1017.38
2018-04-17T00:42:11.933Z,1017.39
2018-04-17T00:43:21.879Z,1017.41
2018-04-17T00:44:31.289Z,1017.44
2018-04-17T00:45:40.206Z,1017.44
2018-04-17T00:46:49.647Z,1017.44
2018-04-17T00:47:58.548Z,1017.47
2018-04-17T00:49:08.499Z,1017.47
2018-04-17T00:50:17.900Z,1017.44
2018-04-17T00:51:26.791Z,1017.47
2018-04-17T00:52:35.950Z,1017.49
2018-04-17T00:53:45.620Z,1017.5
2018-04-17T00:54:55.308Z,1017.5
2018-04-17T00:56:03.943Z,1017.51
2018-04-17T00:57:13.365Z,1017.52
2018-04-17T00:58:23.038Z,1017.54
2018-04-17T00:59:31.931Z,1017.49
2018-04-17T01:00:41.127Z,1017.51
2018-04-17T01:01:50.599Z,1017.5
2018-04-17T01:03:00.019Z,1017.52
2018-04-17T01:04:09.702Z,1017.49
2018-04-17T01:05:19.104Z,1017.52
2018-04-17T01:06:28.514Z,1017.48
2018-04-17T01:07:38.191Z,1017.51
2018-04-17T01:08:47.600Z,1017.51
2018-04-17T01:09:56.504Z,1017.56
2018-04-17T01:11:06.176Z,1017.53
2018-04-17T01:12:15.858Z,1017.53
2018-04-17T01:13:25.289Z,1017.59
2018-04-17T01:14:34.691Z,1017.59
2018-04-17T01:15:44.886Z,1017.56
2018-04-17T01:16:53.786Z,1017.6
2018-04-17T01:18:03.462Z,1017.57
2018-04-17T01:19:13.123Z,1017.61
2018-04-17T01:20:22.278Z,1017.64
2018-04-17T01:21:31.442Z,1017.64
2018-04-17T01:22:40.856Z,1017.67
2018-04-17T01:23:50.274Z,1017.67
2018-04-17T01:24:59.445Z,1017.68
2018-04-17T01:26:08.876Z,1017.69
2018-04-17T01:27:18.027Z,1017.69
2018-04-17T01:28:27.194Z,1017.67
2018-04-17T01:29:36.883Z,1017.72
2018-04-17T01:30:45.833Z,1017.73
2018-04-17T01:31:54.733Z,1017.72
2018-04-17T01:33:04.418Z,1017.74
2018-04-17T01:34:13.847Z,1017.72
2018-04-17T01:35:23.274Z,1017.7
2018-04-17T01:36:32.168Z,1017.72
2018-04-17T01:37:41.834Z,1017.74
2018-04-17T01:38:50.995Z,1017.76
2018-04-17T01:40:00.941Z,1017.75
2018-04-17T01:41:09.856Z,1017.77
2018-04-17T01:42:19.278Z,1017.81
2018-04-17T01:43:28.943Z,1017.77
2018-04-17T01:44:38.357Z,1017.81
2018-04-17T01:45:47.508Z,1017.84
2018-04-17T01:46:57.170Z,1017.84
2018-04-17T01:48:06.614Z,1017.83
2018-04-17T01:49:16.038Z,1017.84
2018-04-17T01:50:25.188Z,1017.83
2018-04-17T01:51:34.612Z,1017.87
2018-04-17T01:52:44.042Z,1017.82
2018-04-17T01:53:53.726Z,1017.87
2018-04-17T01:55:03.158Z,1017.91
2018-04-17T01:56:12.601Z,1017.88
2018-04-17T01:57:22.349Z,1017.91
2018-04-17T01:58:31.913Z,1017.92
2018-04-17T01:59:41.340Z,1017.94
2018-04-17T02:00:50.779Z,1017.96
2018-04-17T02:02:00.457Z,1018
2018-04-17T02:03:10.137Z,1017.98
2018-04-17T02:04:19.808Z,1018.04
2018-04-17T02:05:28.967Z,1018
2018-04-17T02:06:38.407Z,1018.02
2018-04-17T02:07:47.579Z,1018.02
2018-04-17T02:08:56.742Z,1018.01
2018-04-17T02:10:06.444Z,1018.01
2018-04-17T02:11:15.628Z,1018
2018-04-17T02:12:25.334Z,1018.01
2018-04-17T02:13:34.496Z,1018.03
2018-04-17T02:14:43.910Z,1018.01
2018-04-17T02:15:53.083Z,1018.03
2018-04-17T02:17:02.512Z,1018.07
2018-04-17T02:18:12.182Z,1018.06
2018-04-17T02:19:21.133Z,1018.12
2018-04-17T02:20:30.555Z,1018.09
2018-04-17T02:21:39.780Z,1018.2
2018-04-17T02:22:49.193Z,1018.15
2018-04-17T02:23:58.359Z,1018.18
2018-04-17T02:25:07.811Z,1018.18
2018-04-17T02:26:16.973Z,1018.21
2018-04-17T02:27:26.662Z,1018.25
2018-04-17T02:28:36.095Z,1018.25
2018-04-17T02:29:46.030Z,1018.25
2018-04-17T02:30:54.927Z,1018.29
2018-04-17T02:32:03.838Z,1018.25
2018-04-17T02:33:13.799Z,1018.28
2018-04-17T02:34:23.214Z,1018.32
2018-04-17T02:35:32.411Z,1018.3
2018-04-17T02:36:42.098Z,1018.37
2018-04-17T02:37:51.278Z,1018.34
2018-04-17T02:39:00.976Z,1018.39
2018-04-17T02:40:10.143Z,1018.36
2018-04-17T02:41:20.087Z,1018.33
2018-04-17T02:42:29.765Z,1018.35
2018-04-17T02:43:38.933Z,1018.35
2018-04-17T02:44:48.618Z,1018.38
2018-04-17T02:45:58.054Z,1018.34
2018-04-17T02:47:07.204Z,1018.37
2018-04-17T02:48:16.883Z,1018.37
2018-04-17T02:49:26.289Z,1018.4
2018-04-17T02:50:35.979Z,1018.4
2018-04-17T02:51:45.929Z,1018.42
2018-04-17T02:52:55.877Z,1018.43
2018-04-17T02:54:05.627Z,1018.42
2018-04-17T02:55:15.082Z,1018.46
2018-04-17T02:56:24.511Z,1018.44
2018-04-17T02:57:34.057Z,1018.44
2018-04-17T02:58:43.757Z,1018.44
2018-04-17T02:59:53.453Z,1018.42
2018-04-17T03:01:02.888Z,1018.46
2018-04-17T03:02:12.304Z,1018.44
2018-04-17T03:03:21.989Z,1018.43
2018-04-17T03:04:31.933Z,1018.46
2018-04-17T03:05:41.874Z,1018.46
2018-04-17T03:06:51.537Z,1018.48
2018-04-17T03:08:01.206Z,1018.46
2018-04-17T03:09:10.393Z,1018.46
2018-04-17T03:10:19.308Z,1018.41
2018-04-17T03:11:28.982Z,1018.43
2018-04-17T03:12:37.886Z,1018.41
2018-04-17T03:13:47.342Z,1018.42
2018-04-17T03:14:57.013Z,1018.42
2018-04-17T03:16:06.172Z,1018.45
2018-04-17T03:17:15.599Z,1018.39
2018-04-17T03:18:24.489Z,1018.45
2018-04-17T03:19:33.902Z,1018.42
2018-04-17T03:20:43.061Z,1018.43
2018-04-17T03:21:52.732Z,1018.44
2018-04-17T03:23:02.656Z,1018.45
2018-04-17T03:24:11.825Z,1018.44
2018-04-17T03:25:21.757Z,1018.44
2018-04-17T03:26:31.167Z,1018.47
2018-04-17T03:27:40.608Z,1018.5
2018-04-17T03:28:50.025Z,1018.53
2018-04-17T03:29:59.179Z,1018.51
2018-04-17T03:31:08.860Z,1018.52
2018-04-17T03:32:18.034Z,1018.49
2018-04-17T03:33:27.449Z,1018.48
2018-04-17T03:34:36.605Z,1018.51
2018-04-17T03:35:45.772Z,1018.5
2018-04-17T03:36:55.175Z,1018.46
2018-04-17T03:38:04.347Z,1018.48
2018-04-17T03:39:14.027Z,1018.47
2018-04-17T03:40:23.777Z,1018.48
2018-04-17T03:41:33.480Z,1018.47
2018-04-17T03:42:42.120Z,1018.5
2018-04-17T03:43:52.050Z,1018.53
2018-04-17T03:45:01.208Z,1018.48
2018-04-17T03:46:10.373Z,1018.43
2018-04-17T03:47:19.266Z,1018.43
2018-04-17T03:48:28.449Z,1018.42
2018-04-17T03:49:38.144Z,1018.44
2018-04-17T03:50:47.572Z,1018.44
2018-04-17T03:51:56.754Z,1018.42
2018-04-17T03:53:06.184Z,1018.46
2018-04-17T03:54:15.608Z,1018.42
2018-04-17T03:55:24.764Z,1018.45
2018-04-17T03:56:34.186Z,1018.44
2018-04-17T03:57:43.586Z,1018.42
2018-04-17T03:58:52.743Z,1018.41
2018-04-17T04:00:01.908Z,1018.41
2018-04-17T04:01:11.323Z,1018.42
2018-04-17T04:02:20.750Z,1018.45
2018-04-17T04:03:30.464Z,1018.44
2018-04-17T04:04:39.879Z,1018.44
2018-04-17T04:05:49.571Z,1018.45
2018-04-17T04:06:59.240Z,1018.45
2018-04-17T04:08:08.413Z,1018.46
2018-04-17T04:09:17.832Z,1018.51
2018-04-17T04:10:26.980Z,1018.54
2018-04-17T04:11:36.723Z,1018.53
2018-04-17T04:12:46.129Z,1018.53
2018-04-17T04:13:55.288Z,1018.56
2018-04-17T04:15:05.219Z,1018.55
2018-04-17T04:16:15.161Z,1018.53
2018-04-17T04:17:24.611Z,1018.52
2018-04-17T04:18:34.291Z,1018.52
2018-04-17T04:19:43.706Z,1018.54
2018-04-17T04:20:52.853Z,1018.54
2018-04-17T04:22:01.752Z,1018.53
2018-04-17T04:23:10.664Z,1018.52
2018-04-17T04:24:19.805Z,1018.55
2018-04-17T04:25:29.244Z,1018.59
2018-04-17T04:26:39.345Z,1018.6
2018-04-17T04:27:48.507Z,1018.6
2018-04-17T04:28:58.445Z,1018.6
2018-04-17T04:30:07.612Z,1018.59
2018-04-17T04:31:17.016Z,1018.61
2018-04-17T04:32:26.449Z,1018.63
2018-04-17T04:33:35.616Z,1018.73
2018-04-17T04:34:44.555Z,1018.71
2018-04-17T04:35:54.375Z,1018.74
2018-04-17T04:37:04.057Z,1018.76
2018-04-17T04:38:13.986Z,1018.74
2018-04-17T04:39:23.652Z,1018.76
2018-04-17T04:40:33.097Z,1018.76
2018-04-17T04:41:42.770Z,1018.77
2018-04-17T04:42:52.704Z,1018.77
2018-04-17T04:44:02.123Z,1018.79
2018-04-17T04:45:11.544Z,1018.82
2018-04-17T04:46:20.956Z,1018.83
2018-04-17T04:47:30.669Z,1018.82
2018-04-17T04:48:40.621Z,1018.85
2018-04-17T04:49:49.799Z,1018.86
2018-04-17T04:50:58.942Z,1018.89
2018-04-17T04:52:08.631Z,1018.89
2018-04-17T04:53:18.290Z,1018.88
2018-04-17T04:54:27.694Z,1018.88
2018-04-17T04:55:36.857Z,1018.86
2018-04-17T04:56:46.031Z,1018.89
2018-04-17T04:57:55.197Z,1018.93
2018-04-17T04:59:04.889Z,1018.92
2018-04-17T05:00:14.576Z,1018.95
2018-04-17T05:01:23.981Z,1018.99
2018-04-17T05:02:33.148Z,1019
2018-04-17T05:03:42.569Z,1019.01
2018-04-17T05:04:51.774Z,1019.05
2018-04-17T05:06:01.296Z,1019.09
2018-04-17T05:07:11.244Z,1019.07
2018-04-17T05:08:20.139Z,1019.08
2018-04-17T05:09:29.036Z,1019.09
2018-04-17T05:10:38.210Z,1019.09
2018-04-17T05:11:47.910Z,1019.14
2018-04-17T05:12:57.750Z,1019.14
2018-04-17T05:14:06.910Z,1019.16
2018-04-17T05:15:16.359Z,1019.16
2018-04-17T05:16:25.553Z,1019.18
2018-04-17T05:17:35.479Z,1019.22
2018-04-17T05:18:45.137Z,1019.21
2018-04-17T05:19:54.569Z,1019.25
2018-04-17T05:21:03.721Z,1019.31
2018-04-17T05:22:13.210Z,1019.29
2018-04-17T05:23:22.895Z,1019.3
2018-04-17T05:24:32.072Z,1019.3
2018-04-17T05:25:41.491Z,1019.36
2018-04-17T05:26:51.168Z,1019.39
2018-04-17T05:28:00.331Z,1019.44
2018-04-17T05:29:09.993Z,1019.42
2018-04-17T05:30:19.163Z,1019.48
2018-04-17T05:31:28.339Z,1019.47
2018-04-17T05:32:37.760Z,1019.54
2018-04-17T05:33:47.188Z,1019.53
2018-04-17T05:34:56.607Z,1019.52
2018-04-17T05:36:05.553Z,1019.52
2018-04-17T05:37:15.257Z,1019.61
2018-04-17T05:38:24.170Z,1019.62
2018-04-17T05:39:33.601Z,1019.66
2018-04-17T05:40:43.278Z,1019.67
2018-04-17T05:41:52.963Z,1019.7
2018-04-17T05:43:02.652Z,1019.74
2018-04-17T05:44:12.342Z,1019.77
2018-04-17T05:45:21.777Z,1019.81
2018-04-17T05:46:30.927Z,1019.83
2018-04-17T05:47:40.365Z,1019.86
2018-04-17T05:48:49.789Z,1019.9
2018-04-17T05:49:59.482Z,1019.93
2018-04-17T05:51:08.915Z,1019.93
2018-04-17T05:52:18.329Z,1019.96
2018-04-17T05:53:27.480Z,1019.96
2018-04-17T05:54:36.900Z,1020.01
2018-04-17T05:55:46.674Z,1019.99
2018-04-17T05:56:56.368Z,1020.05
2018-04-17T05:58:05.289Z,1020.11
2018-04-17T05:59:14.713Z,1020.1
2018-04-17T06:00:24.399Z,1020.08
2018-04-17T06:01:33.568Z,1020.1
2018-04-17T06:02:42.733Z,1020.1
2018-04-17T06:03:51.893Z,1020.16
2018-04-17T06:05:01.310Z,1020.17
2018-04-17T06:06:10.822Z,1020.2
2018-04-17T06:07:20.491Z,1020.14
2018-04-17T06:08:29.943Z,1020.19
2018-04-17T06:09:39.356Z,1020.22
2018-04-17T06:10:48.763Z,1020.21
2018-04-17T06:11:57.711Z,1020.26
2018-04-17T06:13:06.615Z,1020.26
2018-04-17T06:14:16.299Z,1020.3
2018-04-17T06:15:25.762Z,1020.28
2018-04-17T06:16:35.482Z,1020.3
2018-04-17T06:17:45.181Z,1020.29
2018-04-17T06:18:55.120Z,1020.35
2018-04-17T06:20:04.813Z,1020.35
2018-04-17T06:21:14.755Z,1020.38
2018-04-17T06:22:23.910Z,1020.36
2018-04-17T06:23:33.858Z,1020.37
2018-04-17T06:24:43.294Z,1020.39
2018-04-17T06:25:52.712Z,1020.44
2018-04-17T06:27:02.685Z,1020.37
2018-04-17T06:28:12.102Z,1020.44
2018-04-17T06:29:22.073Z,1020.45
2018-04-17T06:30:31.233Z,1020.43
2018-04-17T06:31:40.653Z,1020.46
2018-04-17T06:32:49.797Z,1020.44
2018-04-17T06:33:59.487Z,1020.47
2018-04-17T06:35:08.712Z,1020.47
2018-04-17T06:36:18.068Z,1020.47
2018-04-17T06:37:26.721Z,1020.5
2018-04-17T06:38:36.388Z,1020.5
2018-04-17T06:39:45.801Z,1020.5
2018-04-17T06:40:54.944Z,1020.51
2018-04-17T06:42:04.396Z,1020.49
2018-04-17T06:43:14.118Z,1020.5
2018-04-17T06:44:23.793Z,1020.49
2018-04-17T06:45:33.200Z,1020.47
2018-04-17T06:46:42.369Z,1020.49
2018-04-17T06:47:51.521Z,1020.48
2018-04-17T06:49:00.953Z,1020.47
2018-04-17T06:50:10.376Z,1020.49
2018-04-17T06:51:19.780Z,1020.47
2018-04-17T06:52:28.953Z,1020.51
2018-04-17T06:53:38.303Z,1020.5
2018-04-17T06:54:47.724Z,1020.52
2018-04-17T06:55:57.412Z,1020.53
2018-04-17T06:57:06.842Z,1020.55
2018-04-17T06:58:16.515Z,1020.56
2018-04-17T06:59:25.940Z,1020.56
2018-04-17T07:00:35.378Z,1020.58
2018-04-17T07:01:44.809Z,1020.56
2018-04-17T07:02:54.234Z,1020.57
2018-04-17T07:04:03.422Z,1020.58
2018-04-17T07:05:12.891Z,1020.59
2018-04-17T07:06:22.436Z,1020.58
2018-04-17T07:07:32.144Z,1020.61
2018-04-17T07:08:41.551Z,1020.6
2018-04-17T07:09:50.452Z,1020.65
2018-04-17T07:10:59.881Z,1020.67
2018-04-17T07:12:09.576Z,1020.68
2018-04-17T07:13:19.249Z,1020.7
2018-04-17T07:14:28.931Z,1020.68
2018-04-17T07:15:38.092Z,1020.69
2018-04-17T07:16:47.775Z,1020.71
2018-04-17T07:17:57.536Z,1020.7
2018-04-17T07:19:07.020Z,1020.73
2018-04-17T07:20:16.957Z,1020.68
2018-04-17T07:21:26.624Z,1020.74
2018-04-17T07:22:36.328Z,1020.74
2018-04-17T07:23:45.555Z,1020.73
2018-04-17T07:24:55.109Z,1020.78
2018-04-17T07:26:04.809Z,1020.8
2018-04-17T07:27:14.224Z,1020.8
2018-04-17T07:28:23.649Z,1020.84
2018-04-17T07:29:33.324Z,1020.82
2018-04-17T07:30:42.238Z,1020.79
2018-04-17T07:31:51.167Z,1020.8
2018-04-17T07:33:01.094Z,1020.79
2018-04-17T07:34:09.999Z,1020.77
2018-04-17T07:35:19.160Z,1020.79
2018-04-17T07:36:28.818Z,1020.76
2018-04-17T07:39:02.850Z,1020.84
2018-04-17T07:40:12.518Z,1020.84
2018-04-17T07:41:22.084Z,1020.84
2018-04-17T07:42:31.773Z,1020.87
2018-04-17T07:43:40.689Z,1020.89
2018-04-17T07:44:50.621Z,1020.88
2018-04-17T07:45:59.521Z,1020.87
2018-04-17T07:47:08.677Z,1020.86
2018-04-17T07:48:18.357Z,1020.88
2018-04-17T07:49:27.784Z,1020.87
2018-04-17T07:50:37.715Z,1020.87
2018-04-17T07:51:47.393Z,1020.92
2018-04-17T07:52:56.797Z,1020.92
2018-04-17T07:54:06.754Z,1020.93
2018-04-17T07:55:16.174Z,1020.93
2018-04-17T07:56:25.598Z,1020.96
2018-04-17T07:57:35.009Z,1020.95
2018-04-17T07:58:44.436Z,1020.95
2018-04-17T07:59:53.597Z,1020.99
2018-04-17T08:01:02.814Z,1021
2018-04-17T08:02:11.980Z,1020.99
2018-04-17T08:03:21.394Z,1021.05
2018-04-17T08:04:31.115Z,1021.02
2018-04-17T08:05:40.634Z,1021.01
2018-04-17T08:06:50.320Z,1021.01
2018-04-17T08:07:59.753Z,1021.03
2018-04-17T08:09:09.469Z,1020.98
2018-04-17T08:10:19.177Z,1021.02
2018-04-17T08:11:29.098Z,1020.99
2018-04-17T08:12:39.035Z,1021.03
2018-04-17T08:13:48.531Z,1021.03
2018-04-17T08:14:57.696Z,1021.03
2018-04-17T08:16:07.362Z,1021.06
2018-04-17T08:17:16.779Z,1021.09
2018-04-17T08:18:26.204Z,1021.08
2018-04-17T08:19:35.895Z,1021.13
2018-04-17T08:20:45.058Z,1021.18
2018-04-17T08:21:54.218Z,1021.2
2018-04-17T08:23:03.633Z,1021.18
2018-04-17T08:24:13.331Z,1021.2
2018-04-17T08:25:22.760Z,1021.23
2018-04-17T08:26:32.210Z,1021.18
2018-04-17T08:27:41.634Z,1021.26
2018-04-17T08:28:51.612Z,1021.27
2018-04-17T08:30:01.282Z,1021.22
2018-04-17T08:31:10.436Z,1021.22
2018-04-17T08:32:20.111Z,1021.19
2018-04-17T08:33:30.056Z,1021.19
2018-04-17T08:34:39.206Z,1021.17
2018-04-17T08:35:49.133Z,1021.12
2018-04-17T08:36:58.314Z,1021.11
2018-04-17T08:38:07.548Z,1021.11
2018-04-17T08:39:16.446Z,1021.12
2018-04-17T08:40:25.911Z,1021.09
2018-04-17T08:41:35.325Z,1021.16
2018-04-17T08:42:45.015Z,1021.16
2018-04-17T08:43:55.162Z,1021.18
2018-04-17T08:45:04.840Z,1021.17
2018-04-17T08:46:14.277Z,1021.16
2018-04-17T08:47:23.449Z,1021.16
2018-04-17T08:48:32.908Z,1021.17
2018-04-17T08:49:42.082Z,1021.19
2018-04-17T08:50:51.783Z,1021.15
2018-04-17T08:52:01.206Z,1021.15
2018-04-17T08:53:10.643Z,1021.18
2018-04-17T08:54:19.536Z,1021.15
2018-04-17T08:55:29.032Z,1021.13
2018-04-17T08:56:37.966Z,1021.11
2018-04-17T08:57:47.405Z,1021.11
2018-04-17T08:58:57.106Z,1021.08
2018-04-17T09:00:06.272Z,1021.06
2018-04-17T09:01:15.454Z,1021.06
2018-04-17T09:02:24.884Z,1021.03
2018-04-17T09:03:34.398Z,1021.06
2018-04-17T09:04:43.298Z,1020.99
2018-04-17T09:05:52.527Z,1020.98
2018-04-17T09:07:02.471Z,1020.95
2018-04-17T09:08:11.887Z,1020.97
2018-04-17T09:09:21.310Z,1020.95
2018-04-17T09:10:30.268Z,1020.94
2018-04-17T09:11:39.431Z,1020.91
2018-04-17T09:12:48.982Z,1020.92
2018-04-17T09:13:58.923Z,1020.93
2018-04-17T09:15:08.365Z,1020.9
2018-04-17T09:16:17.512Z,1020.89
2018-04-17T09:17:26.406Z,1020.94
2018-04-17T09:18:36.089Z,1020.93
2018-04-17T09:19:45.770Z,1021
2018-04-17T09:20:54.936Z,1020.99
2018-04-17T09:22:04.363Z,1020.99
2018-04-17T09:23:13.281Z,1021.03
2018-04-17T09:24:22.444Z,1021.02
2018-04-17T09:25:31.601Z,1021
2018-04-17T09:26:41.292Z,1021.03
2018-04-17T09:27:50.766Z,1021.03
2018-04-17T09:29:00.706Z,1021.04
2018-04-17T09:30:10.135Z,1021.01
2018-04-17T09:31:19.581Z,1020.98
2018-04-17T09:32:28.487Z,1020.99
2018-04-17T09:33:37.931Z,1020.93
2018-04-17T09:34:47.093Z,1020.9
2018-04-17T09:35:56.557Z,1020.91
2018-04-17T09:37:06.644Z,1020.91
2018-04-17T09:38:15.813Z,1020.92
2018-04-17T09:39:25.269Z,1020.92
2018-04-17T09:40:34.466Z,1020.95
2018-04-17T09:41:44.410Z,1020.98
2018-04-17T09:42:53.831Z,1020.99
2018-04-17T09:44:03.250Z,1020.98
2018-04-17T09:45:12.161Z,1020.96
2018-04-17T09:46:21.833Z,1021
2018-04-17T09:47:30.985Z,1021.02
2018-04-17T09:48:40.408Z,1020.98
2018-04-17T09:49:50.237Z,1020.99
2018-04-17T09:50:59.452Z,1020.98
2018-04-17T09:52:09.131Z,1020.95
2018-04-17T09:53:18.549Z,1020.95
2018-04-17T09:54:28.214Z,1020.9
2018-04-17T09:55:37.629Z,1020.93
2018-04-17T09:56:46.788Z,1020.93
2018-04-17T09:57:56.469Z,1020.98
2018-04-17T09:59:06.265Z,1020.95
2018-04-17T10:00:15.190Z,1020.92
2018-04-17T10:01:24.889Z,1020.93
2018-04-17T10:02:34.559Z,1020.94
2018-04-17T10:03:43.986Z,1020.91
2018-04-17T10:04:53.398Z,1020.87
2018-04-17T10:06:02.576Z,1020.89
2018-04-17T10:07:11.767Z,1020.89
2018-04-17T10:08:21.170Z,1020.85
2018-04-17T10:09:30.826Z,1020.88
2018-04-17T10:10:40.542Z,1020.88
2018-04-17T10:11:50.209Z,1020.87
2018-04-17T10:12:59.489Z,1020.89
2018-04-17T10:14:09.210Z,1020.89
2018-04-17T10:15:18.887Z,1020.88
2018-04-17T10:16:28.058Z,1020.84
2018-04-17T10:17:37.220Z,1020.86
2018-04-17T10:18:46.634Z,1020.89
2018-04-17T10:19:55.872Z,1020.8
2018-04-17T10:21:05.816Z,1020.8
2018-04-17T10:22:15.241Z,1020.77
2018-04-17T10:23:24.913Z,1020.74
2018-04-17T10:24:34.113Z,1020.77
2018-04-17T10:25:43.523Z,1020.76
2018-04-17T10:26:53.195Z,1020.76
2018-04-17T10:28:02.909Z,1020.76
2018-04-17T10:29:12.585Z,1020.72
2018-04-17T10:30:21.758Z,1020.72
2018-04-17T10:31:31.578Z,1020.76
2018-04-17T10:32:41.008Z,1020.72
2018-04-17T10:33:50.160Z,1020.71
2018-04-17T10:34:59.318Z,1020.78
2018-04-17T10:36:08.991Z,1020.83
2018-04-17T10:37:18.423Z,1020.79
2018-04-17T10:38:27.569Z,1020.75
2018-04-17T10:39:37.270Z,1020.69
2018-04-17T10:40:46.818Z,1020.7
2018-04-17T10:41:56.233Z,1020.66
2018-04-17T10:43:05.464Z,1020.62
2018-04-17T10:44:14.905Z,1020.66
2018-04-17T10:45:24.082Z,1020.59
2018-04-17T10:46:33.062Z,1020.6
2018-04-17T10:47:42.769Z,1020.6
2018-04-17T10:48:51.937Z,1020.67
2018-04-17T10:50:01.117Z,1020.64
2018-04-17T10:51:10.543Z,1020.6
2018-04-17T10:52:20.213Z,1020.65
2018-04-17T10:53:29.370Z,1020.61
2018-04-17T10:54:38.524Z,1020.6
2018-04-17T10:55:47.930Z,1020.57
2018-04-17T10:56:56.842Z,1020.58
2018-04-17T10:58:06.259Z,1020.55
2018-04-17T10:59:15.434Z,1020.54
2018-04-17T11:00:24.858Z,1020.52
2018-04-17T11:01:33.749Z,1020.56
2018-04-17T11:02:43.172Z,1020.55
2018-04-17T11:03:52.902Z,1020.59
2018-04-17T11:05:02.336Z,1020.52
2018-04-17T11:06:11.491Z,1020.53
2018-04-17T11:07:21.195Z,1020.48
2018-04-17T11:08:30.377Z,1020.49
2018-04-17T11:09:40.067Z,1020.47
2018-04-17T11:10:49.517Z,1020.48
2018-04-17T11:11:59.194Z,1020.52
2018-04-17T11:13:08.616Z,1020.51
2018-04-17T11:14:17.257Z,1020.53
2018-04-17T11:15:26.962Z,1020.49
2018-04-17T11:16:36.407Z,1020.49
2018-04-17T11:17:45.579Z,1020.51
2018-04-17T11:18:55.286Z,1020.47
2018-04-17T11:20:04.430Z,1020.4
2018-04-17T11:21:13.076Z,1020.36
2018-04-17T11:22:22.226Z,1020.37
2018-04-17T11:23:31.415Z,1020.46
2018-04-17T11:24:40.313Z,1020.41
2018-04-17T11:25:49.720Z,1020.33
2018-04-17T11:26:58.632Z,1020.33
2018-04-17T11:28:08.311Z,1020.31
2018-04-17T11:29:17.717Z,1020.33
2018-04-17T11:30:27.134Z,1020.31
2018-04-17T11:31:36.062Z,1020.27
2018-04-17T11:32:45.220Z,1020.29
2018-04-17T11:33:54.378Z,1020.31
2018-04-17T11:35:04.060Z,1020.29
2018-04-17T11:36:13.017Z,1020.3
2018-04-17T11:37:21.662Z,1020.28
2018-04-17T11:38:31.092Z,1020.35
2018-04-17T11:39:40.259Z,1020.29
2018-04-17T11:40:49.423Z,1020.31
2018-04-17T11:41:59.104Z,1020.25
2018-04-17T11:43:08.592Z,1020.34
2018-04-17T11:44:18.278Z,1020.35
2018-04-17T11:45:27.435Z,1020.39
2018-04-17T11:46:36.914Z,1020.37
2018-04-17T11:47:46.353Z,1020.38
2018-04-17T11:48:55.515Z,1020.41
2018-04-17T11:50:04.941Z,1020.43
2018-04-17T11:51:14.103Z,1020.45
2018-04-17T11:52:23.536Z,1020.43
2018-04-17T11:53:32.422Z,1020.47
2018-04-17T11:54:41.334Z,1020.5
2018-04-17T11:55:50.493Z,1020.47
2018-04-17T11:57:00.175Z,1020.43
2018-04-17T11:58:09.327Z,1020.43
2018-04-17T11:59:18.794Z,1020.44
2018-04-17T12:00:27.707Z,1020.38
2018-04-17T12:01:37.119Z,1020.43
2018-04-17T12:02:46.810Z,1020.44
2018-04-17T12:03:56.475Z,1020.44
2018-04-17T12:05:05.921Z,1020.43
2018-04-17T12:06:15.801Z,1020.43
2018-04-17T12:07:25.518Z,1020.41
2018-04-17T12:08:34.435Z,1020.37
2018-04-17T12:09:43.893Z,1020.37
2018-04-17T12:10:53.581Z,1020.31
2018-04-17T12:12:02.996Z,1020.27
2018-04-17T12:13:12.422Z,1020.26
2018-04-17T12:14:21.401Z,1020.34
2018-04-17T12:15:31.087Z,1020.28
2018-04-17T12:16:40.774Z,1020.32
2018-04-17T12:17:49.936Z,1020.29
2018-04-17T12:18:58.863Z,1020.31
2018-04-17T12:20:08.286Z,1020.32
2018-04-17T12:21:17.979Z,1020.34
2018-04-17T12:22:27.137Z,1020.32
2018-04-17T12:23:37.092Z,1020.29
2018-04-17T12:24:45.999Z,1020.3
2018-04-17T12:25:55.690Z,1020.31
2018-04-17T12:27:05.413Z,1020.32
2018-04-17T12:28:14.820Z,1020.34
2018-04-17T12:29:24.259Z,1020.39
2018-04-17T12:30:33.682Z,1020.41
2018-04-17T12:31:42.846Z,1020.36
2018-04-17T12:32:52.792Z,1020.36
2018-04-17T12:34:01.960Z,1020.36
2018-04-17T12:35:11.117Z,1020.39
2018-04-17T12:36:20.300Z,1020.34
2018-04-17T12:37:29.992Z,1020.34
2018-04-17T12:38:39.518Z,1020.31
2018-04-17T12:39:49.224Z,1020.29
2018-04-17T12:40:58.646Z,1020.29
2018-04-17T12:42:07.807Z,1020.28
2018-04-17T12:43:17.487Z,1020.3
2018-04-17T12:44:27.414Z,1020.32
2018-04-17T12:45:36.894Z,1020.28
2018-04-17T12:46:46.836Z,1020.28
2018-04-17T12:47:56.273Z,1020.28
2018-04-17T12:49:05.951Z,1020.22
2018-04-17T12:50:15.371Z,1020.23
2018-04-17T12:51:25.091Z,1020.2
2018-04-17T12:52:35.010Z,1020.19
2018-04-17T12:53:44.432Z,1020.16
2018-04-17T12:54:53.602Z,1020.2
2018-04-17T12:56:03.047Z,1020.16
2018-04-17T12:57:11.971Z,1020.15
2018-04-17T12:58:21.140Z,1020.08
2018-04-17T12:59:30.032Z,1020.06
2018-04-17T13:00:38.921Z,1020.09
2018-04-17T13:01:48.582Z,1020.05
2018-04-17T13:02:58.257Z,1020.04
2018-04-17T13:04:07.179Z,1020.04
2018-04-17T13:05:16.605Z,1020.07
2018-04-17T13:06:26.302Z,1020.05
2018-04-17T13:07:35.471Z,1020.09
2018-04-17T13:08:45.030Z,1020.11
2018-04-17T13:09:54.690Z,1020.09
2018-04-17T13:11:04.105Z,1020.12
2018-04-17T13:12:13.276Z,1020.11
2018-04-17T13:13:22.706Z,1020.07
2018-04-17T13:14:31.877Z,1020.15
2018-04-17T13:15:41.573Z,1020.14
2018-04-17T13:16:51.667Z,1020.17
2018-04-17T13:18:01.102Z,1020.2
2018-04-17T13:19:10.001Z,1020.23
2018-04-17T13:20:19.181Z,1020.22
2018-04-17T13:21:28.613Z,1020.26
2018-04-17T13:22:38.042Z,1020.24
2018-04-17T13:23:47.455Z,1020.19
2018-04-17T13:24:56.091Z,1020.15
2018-04-17T13:26:05.776Z,1020.1
2018-04-17T13:27:15.515Z,1020.13
2018-04-17T13:28:24.429Z,1020.13
2018-04-17T13:29:33.329Z,1020.17
2018-04-17T13:30:42.995Z,1020.15
2018-04-17T13:31:52.414Z,1020.17
2018-04-17T13:33:01.832Z,1020.14
2018-04-17T13:34:11.271Z,1020.12
2018-04-17T13:35:20.430Z,1020.1
2018-04-17T13:36:29.592Z,1020.05
2018-04-17T13:37:39.006Z,1020.08
2018-04-17T13:38:48.682Z,1020.05
2018-04-17T13:39:57.848Z,1020.09
2018-04-17T13:41:07.272Z,1020.11
2018-04-17T13:42:16.452Z,1020.15
2018-04-17T13:43:25.432Z,1020.15
2018-04-17T13:44:34.861Z,1020.1
2018-04-17T13:45:44.025Z,1020.13
2018-04-17T13:46:53.980Z,1020.12
2018-04-17T13:48:03.655Z,1020.12
2018-04-17T13:49:13.601Z,1020.09
2018-04-17T13:50:23.381Z,1020.1
2018-04-17T13:51:32.534Z,1020.06
2018-04-17T13:52:41.950Z,1020.02
2018-04-17T13:53:51.611Z,1020.02
2018-04-17T13:55:01.567Z,1020.04
2018-04-17T13:56:11.010Z,1020.02
2018-04-17T13:57:20.460Z,1020
2018-04-17T13:58:30.135Z,1020.01
2018-04-17T13:59:39.808Z,1019.93
2018-04-17T14:00:49.028Z,1019.89
2018-04-17T14:01:58.204Z,1019.88
2018-04-17T14:03:06.839Z,1019.84
2018-04-17T14:04:16.272Z,1019.84